• Join FlightAware (Why Join?)
  • Login
  • US Flag 
04:51PM EDT


 

Airport Tracker/Info


-or-


 

Live Flight TrackerFlight Track Log ✈ UCA3597 ✈ 01-Oct-2013 ✈ KIAD - KBGM

Flight Track Log - Related Links

Times and Time Zones

All times are in EDT time to prevent confusion due to time zone crossing. See the UCA3597 flight status page for this flight to view local times or setup timezone preferences in your user account.

Time Position Orientation Groundspeed Altitude Reporting Facility
EDT Latitude Longitude Course Direction KTS MPH feet Rate Location/Type
05:37PM 39.2983 -77.3078 19° North  Level Estimated
05:38PM 39.3568 -77.2823 19° North  Level Estimated
05:39PM 39.4153 -77.2567 19° North  Level Estimated
05:40PM 39.4737 -77.2311 19° North  Level Estimated
05:41PM 39.5322 -77.2055 19° North  Level Estimated
05:42PM 39.5906 -77.1798 19° North  Level Estimated
05:43PM 39.6490 -77.1541 19° North  Level Estimated
05:44PM 39.7075 -77.1283 19° North  Level Estimated
05:45PM 39.7659 -77.1025 19° North  Level Estimated
05:46PM 39.8243 -77.0767 19° North  Level Estimated
05:47PM 39.8827 -77.0508 19° North  Level Estimated
05:48PM 39.9411 -77.0248 19° North  Level Estimated
05:49PM 39.9995 -76.9988 19° North  Level Estimated
05:50PM 40.0579 -76.9728 19° North  Level Estimated
05:51PM 40.1163 -76.9467 19° North  Level Estimated
05:52PM 40.1747 -76.9206 19° North  Level Estimated
05:53PM 40.2331 -76.8944 19° North  Level Estimated
05:54PM 40.2915 -76.8682 19° North  Level Estimated
05:55PM 40.3498 -76.8420 19° North  Level Estimated
05:56PM 40.4082 -76.8157 19° North  Level Estimated
05:57PM 40.4665 -76.7893 19° North  Level Estimated
05:58PM 40.5249 -76.7629 19° North  Level Estimated
05:59PM 40.5832 -76.7365 19° North  Level Estimated
06:00PM 40.6416 -76.7100 19° North  Level Estimated
06:01PM 40.6999 -76.6835 19° North  Level Estimated
06:02PM 40.7582 -76.6569 19° North  Level Estimated
06:03PM 40.8165 -76.6303 19° North  Level Estimated
06:04PM 40.8748 -76.6036 19° North  Level Estimated
06:05PM 40.9332 -76.5769 19° North  Level Estimated
06:06PM 40.9915 -76.5501 19° North  Level Estimated
06:07PM 41.0497 -76.5233 19° North  Level Estimated
06:08PM 41.1080 -76.4965 19° North  Level Estimated
06:09PM 41.1663 -76.4695 19° North  Level Estimated
06:10PM 41.2246 -76.4426 19° North  Level Estimated
06:11PM 41.2828 -76.4156 19° North  Level Estimated
06:12PM 41.3411 -76.3885 19° North  Level Estimated
06:13PM 41.3994 -76.3614 19° North  Level Estimated
06:14PM 41.4576 -76.3343 19° North  Level Estimated
06:15PM 41.5159 -76.3071 19° North  Level Estimated
06:16PM 41.5741 -76.2798 19° North  Level Estimated
06:17PM 41.6323 -76.2525 19° North  Level Estimated
06:18PM 41.6906 -76.2252 19° North  Level Estimated
06:19PM 41.7488 -76.1978 19° North  Level Estimated
06:20PM 41.8070 -76.1703 19° North  Level Estimated
06:21PM 41.8652 -76.1429 19° North  Level Estimated
06:22PM 41.9234 -76.1153 19° North  Level Estimated
06:23PM 41.9816 -76.0877 19° North  Level Estimated
06:24PM 42.0397 -76.0601 19° North  Level Estimated
06:25PM 42.0979 -76.0324 19° North  Level Estimated
06:26PM 42.1561 -76.0046 19° North  Level Estimated
06:27PM 42.2084 -75.9796 19° North  Level Estimated
06:28PM 42.2084 -75.9796 35° Northeast  Level Estimated
06:29PM 42.2084 -75.9796 35° Northeast  Level Estimated
06:30PM 42.2084 -75.9796 35° Northeast  Level Estimated
06:31PM 42.2084 -75.9796 35° Northeast  Level Estimated
06:32PM 42.2084 -75.9796 35° Northeast  Level Estimated
06:33PM 42.2084 -75.9796 35° Northeast  Level Estimated
06:34PM 42.2084 -75.9796 35° Northeast  Level Estimated
06:35PM 42.2084 -75.9796 35° Northeast  Level Estimated
06:36PM 42.2084 -75.9796 35° Northeast  Level Estimated
06:37PM 42.2084 -75.9796 35° Northeast  Level Estimated
06:38PM 42.2084 -75.9796 35° Northeast  Level Estimated
06:39PM 42.2084 -75.9796 35° Northeast  Level Estimated
06:40PM 42.2084 -75.9796 35° Northeast  Level Estimated
06:41PM 42.2084 -75.9796 35° Northeast  Level Estimated
06:42PM 42.2084 -75.9796 35° Northeast  Level Estimated
06:43PM 42.2084 -75.9796 35° Northeast  Level Estimated